Time;durP1;ratioP1;P1;durP2;ratioP2;P2;SDS_P1;SDS_P2;PMS_P1;PMS_P2;Temp;Humidity;BMP_temperature;BMP_pressure;BME280_temperature;BME280_humidity;BME280_pressure;Samples;Min_cycle;Max_cycle;Signal;HPM_P1;HPM_P2
2023/06/19 00:01:11;;;;;;;6.22;3.60;;;;;;;;;;6371898;22;20059;-63
2023/06/19 00:03:39;;;;;;;5.45;3.53;;;;;;;;;;6371598;22;20022;-62
2023/06/19 00:06:06;;;;;;;7.07;3.80;;;;;;;;;;6343930;22;20018;-62
2023/06/19 00:08:36;;;;;;;8.27;3.53;;;;;;;;;;6372852;22;20089;-62
2023/06/19 00:11:03;;;;;;;9.00;3.80;;;;;;;;;;6372523;22;20305;-63
2023/06/19 00:13:31;;;;;;;5.85;3.55;;;;;;;;;;6372795;22;20022;-63
2023/06/19 00:16:00;;;;;;;8.35;4.22;;;;;;;;;;6372347;22;20014;-63
2023/06/19 00:18:28;;;;;;;5.57;3.72;;;;;;;;;;6343923;22;20356;-63
2023/06/19 00:20:56;;;;;;;4.25;3.50;;;;;;;;;;6372353;22;20014;-63
2023/06/19 00:23:24;;;;;;;5.60;3.60;;;;;;;;;;6372274;22;20025;-62
2023/06/19 00:25:51;;;;;;;6.32;3.50;;;;;;;;;;6317245;22;20018;-63
2023/06/19 00:28:21;;;;;;;9.20;3.60;;;;;;;;;;6344628;22;20101;-63
2023/06/19 00:30:49;;;;;;;5.25;3.70;;;;;;;;;;6318630;22;20022;-63
2023/06/19 00:33:16;;;;;;;4.93;3.40;;;;;;;;;;6343703;22;20049;-62
2023/06/19 00:35:44;;;;;;;5.20;3.20;;;;;;;;;;6372171;22;20441;-63
2023/06/19 00:38:12;;;;;;;7.22;3.78;;;;;;;;;;6343487;22;20471;-63
2023/06/19 00:40:39;;;;;;;8.57;3.78;;;;;;;;;;6371591;22;20014;-63
2023/06/19 00:43:09;;;;;;;8.23;4.03;;;;;;;;;;6371028;22;20018;-63
2023/06/19 00:45:37;;;;;;;9.35;3.67;;;;;;;;;;6371331;22;20014;-62
2023/06/19 00:48:05;;;;;;;7.10;3.60;;;;;;;;;;6342296;22;20029;-63
2023/06/19 00:50:33;;;;;;;6.07;3.55;;;;;;;;;;6342266;22;20064;-63
2023/06/19 00:53:03;;;;;;;7.57;3.90;;;;;;;;;;6343532;22;20018;-63
2023/06/19 00:55:32;;;;;;;5.13;3.40;;;;;;;;;;6343040;22;20014;-63
2023/06/19 00:58:01;;;;;;;5.90;3.58;;;;;;;;;;6343424;22;20027;-63
2023/06/19 01:00:28;;;;;;;7.63;3.90;;;;;;;;;;6343519;22;20011;-63
2023/06/19 01:02:57;;;;;;;7.45;3.50;;;;;;;;;;6344012;22;20018;-63
2023/06/19 01:05:25;;;;;;;5.35;3.75;;;;;;;;;;6343853;22;20105;-63
2023/06/19 01:08:08;;;;;;;9.77;3.80;;;;;;;;;;6344126;22;20051;-63
2023/06/19 01:10:39;;;;;;;5.30;3.53;;;;;;;;;;6371838;22;20010;-63
2023/06/19 01:13:08;;;;;;;5.85;4.07;;;;;;;;;;6343341;22;20029;-62
2023/06/19 01:15:36;;;;;;;7.40;3.95;;;;;;;;;;6316506;22;20336;-62
2023/06/19 01:18:04;;;;;;;8.60;3.80;;;;;;;;;;6343271;22;20105;-62
2023/06/19 01:20:33;;;;;;;8.98;4.10;;;;;;;;;;6370764;22;20042;-62
2023/06/19 01:23:10;;;;;;;5.13;3.85;;;;;;;;;;6317865;22;20365;-62
2023/06/19 01:25:39;;;;;;;7.10;4.05;;;;;;;;;;6343461;22;20437;-62
2023/06/19 01:28:09;;;;;;;6.45;4.15;;;;;;;;;;6343030;22;20025;-62
2023/06/19 01:30:38;;;;;;;7.30;4.15;;;;;;;;;;6371214;22;20014;-62
2023/06/19 01:33:11;;;;;;;9.07;4.43;;;;;;;;;;6343569;22;20019;-63
2023/06/19 01:35:40;;;;;;;8.25;3.92;;;;;;;;;;6343404;22;20053;-62
2023/06/19 01:38:08;;;;;;;7.43;3.97;;;;;;;;;;6343570;22;20078;-63
2023/06/19 01:40:36;;;;;;;8.52;4.18;;;;;;;;;;6342228;22;20019;-62
2023/06/19 01:43:04;;;;;;;6.78;3.95;;;;;;;;;;6371310;22;20025;-63
2023/06/19 01:45:32;;;;;;;9.23;3.80;;;;;;;;;;6370957;22;20010;-62
2023/06/19 01:48:00;;;;;;;9.40;4.25;;;;;;;;;;6317280;22;20044;-62
2023/06/19 01:50:27;;;;;;;6.28;4.45;;;;;;;;;;6371499;22;20387;-62
2023/06/19 01:52:56;;;;;;;6.78;4.47;;;;;;;;;;6343158;22;20388;-62
2023/06/19 01:55:23;;;;;;;7.95;5.03;;;;;;;;;;6343822;22;20040;-62
2023/06/19 01:57:51;;;;;;;7.95;4.80;;;;;;;;;;6343758;22;20018;-62
2023/06/19 02:00:19;;;;;;;11.18;5.18;;;;;;;;;;6343245;22;20018;-62
2023/06/19 02:02:46;;;;;;;11.02;5.18;;;;;;;;;;6370958;22;20022;-62
2023/06/19 02:05:15;;;;;;;12.98;5.68;;;;;;;;;;6344128;22;20014;-62
2023/06/19 02:07:42;;;;;;;10.85;5.30;;;;;;;;;;6342227;22;20018;-62
2023/06/19 02:10:10;;;;;;;11.10;5.38;;;;;;;;;;6342280;22;20079;-63
2023/06/19 02:12:37;;;;;;;12.95;6.40;;;;;;;;;;6342713;22;20019;-62
2023/06/19 02:15:05;;;;;;;14.52;6.57;;;;;;;;;;6342858;22;20097;-62
2023/06/19 02:17:33;;;;;;;13.60;5.70;;;;;;;;;;6343399;22;20386;-62
2023/06/19 02:20:00;;;;;;;10.82;5.45;;;;;;;;;;6343427;22;20075;-63
2023/06/19 02:22:28;;;;;;;14.38;5.60;;;;;;;;;;6371308;22;20024;-62
2023/06/19 02:24:55;;;;;;;13.82;5.40;;;;;;;;;;6343113;22;20448;-63
2023/06/19 02:27:23;;;;;;;8.95;5.50;;;;;;;;;;6343387;22;20018;-65
2023/06/19 02:29:51;;;;;;;9.88;5.47;;;;;;;;;;6343189;22;20014;-62
2023/06/19 02:32:18;;;;;;;12.73;5.40;;;;;;;;;;6342632;22;20021;-62
2023/06/19 02:34:46;;;;;;;9.55;5.63;;;;;;;;;;6343085;22;20018;-62
2023/06/19 02:37:13;;;;;;;11.23;6.15;;;;;;;;;;6370590;22;20064;-62
2023/06/19 02:39:41;;;;;;;12.15;5.43;;;;;;;;;;6342776;22;20501;-62
2023/06/19 02:42:08;;;;;;;13.45;5.97;;;;;;;;;;6342946;22;20022;-63
2023/06/19 02:44:36;;;;;;;14.48;6.32;;;;;;;;;;6370909;22;20041;-62
2023/06/19 02:47:03;;;;;;;15.88;6.15;;;;;;;;;;6342944;22;20029;-63
2023/06/19 02:49:31;;;;;;;14.23;6.47;;;;;;;;;;6342428;22;20018;-62
2023/06/19 02:51:58;;;;;;;12.13;6.20;;;;;;;;;;6342867;22;20021;-62
2023/06/19 02:54:26;;;;;;;11.80;6.22;;;;;;;;;;6317256;22;20046;-62
2023/06/19 02:56:53;;;;;;;13.45;6.18;;;;;;;;;;6342819;22;20456;-62
2023/06/19 02:59:21;;;;;;;15.35;7.00;;;;;;;;;;6370668;22;20018;-62
2023/06/19 03:01:51;;;;;;;14.50;7.13;;;;;;;;;;6370769;22;20014;-64
2023/06/19 03:04:19;;;;;;;12.23;7.05;;;;;;;;;;6343063;22;19999;-63
2023/06/19 03:06:46;;;;;;;17.85;6.50;;;;;;;;;;6343080;22;20018;-63
2023/06/19 03:09:15;;;;;;;12.20;6.65;;;;;;;;;;6371013;22;20018;-61
2023/06/19 03:11:42;;;;;;;13.38;6.60;;;;;;;;;;6341883;22;20019;-61
2023/06/19 03:14:10;;;;;;;12.77;6.95;;;;;;;;;;6342762;22;20452;-61
2023/06/19 03:16:38;;;;;;;13.93;6.80;;;;;;;;;;6342640;22;20020;-61
2023/06/19 03:19:06;;;;;;;13.95;7.03;;;;;;;;;;6342299;22;20109;-62
2023/06/19 03:21:35;;;;;;;14.23;6.53;;;;;;;;;;6342465;22;20030;-62
2023/06/19 03:24:03;;;;;;;13.65;6.40;;;;;;;;;;6341507;22;20023;-62
2023/06/19 03:26:31;;;;;;;13.25;6.35;;;;;;;;;;6342089;22;20054;-62
2023/06/19 03:29:01;;;;;;;13.35;5.95;;;;;;;;;;6343164;22;20019;-62
2023/06/19 03:31:39;;;;;;;10.98;6.57;;;;;;;;;;6342371;22;20075;-64
2023/06/19 03:34:08;;;;;;;11.57;6.40;;;;;;;;;;6370396;22;20015;-64
2023/06/19 03:36:37;;;;;;;12.90;6.78;;;;;;;;;;6341277;22;20022;-64
2023/06/19 03:39:08;;;;;;;15.70;7.95;;;;;;;;;;6341192;22;20132;-64
2023/06/19 03:41:37;;;;;;;14.13;7.18;;;;;;;;;;6340761;22;20097;-63
2023/06/19 03:44:04;;;;;;;13.13;7.20;;;;;;;;;;6340154;22;20053;-63
2023/06/19 03:46:32;;;;;;;14.63;7.40;;;;;;;;;;6338690;22;20022;-63
2023/06/19 03:49:00;;;;;;;13.50;7.03;;;;;;;;;;6340607;22;20022;-64
2023/06/19 03:51:28;;;;;;;16.30;7.32;;;;;;;;;;6367542;22;20102;-63
2023/06/19 03:53:56;;;;;;;14.80;7.30;;;;;;;;;;6340955;22;20018;-64
2023/06/19 03:56:24;;;;;;;16.38;7.30;;;;;;;;;;6340609;22;20033;-63
2023/06/19 03:58:51;;;;;;;15.88;7.65;;;;;;;;;;6370139;22;20384;-64
2023/06/19 04:01:19;;;;;;;17.33;7.15;;;;;;;;;;6314792;22;20014;-65
2023/06/19 04:03:48;;;;;;;18.48;7.68;;;;;;;;;;6340011;22;20022;-65
2023/06/19 04:06:16;;;;;;;19.10;7.38;;;;;;;;;;6369109;22;20428;-64
2023/06/19 04:08:43;;;;;;;19.30;8.02;;;;;;;;;;6341824;22;20022;-65
2023/06/19 04:11:12;;;;;;;18.15;8.95;;;;;;;;;;6340223;22;20476;-64
2023/06/19 04:13:40;;;;;;;18.33;7.70;;;;;;;;;;6341986;22;20026;-64
2023/06/19 04:16:08;;;;;;;23.58;8.63;;;;;;;;;;6340832;22;20029;-64
2023/06/19 04:18:35;;;;;;;18.02;8.57;;;;;;;;;;6340810;22;20537;-64
2023/06/19 04:21:04;;;;;;;18.48;8.90;;;;;;;;;;6340496;22;20042;-64
2023/06/19 04:23:32;;;;;;;18.83;9.55;;;;;;;;;;6339644;22;20025;-64
2023/06/19 04:25:59;;;;;;;21.48;10.93;;;;;;;;;;6338977;22;20030;-64
2023/06/19 04:28:27;;;;;;;26.50;10.48;;;;;;;;;;6340242;22;20029;-64
2023/06/19 04:31:00;;;;;;;22.08;10.73;;;;;;;;;;6368879;22;20021;-63
2023/06/19 04:33:29;;;;;;;24.65;11.15;;;;;;;;;;6372033;22;20025;-63
2023/06/19 04:35:57;;;;;;;22.67;11.32;;;;;;;;;;6342622;22;20011;-63
2023/06/19 04:38:24;;;;;;;27.98;11.45;;;;;;;;;;6371125;22;20044;-66
2023/06/19 04:40:53;;;;;;;27.50;12.25;;;;;;;;;;6369815;22;20041;-62
2023/06/19 04:43:20;;;;;;;22.90;12.00;;;;;;;;;;6369687;22;20028;-62
2023/06/19 04:45:48;;;;;;;24.45;10.63;;;;;;;;;;6370720;22;20044;-62
2023/06/19 04:48:15;;;;;;;20.98;10.07;;;;;;;;;;6371290;22;20441;-62
2023/06/19 04:50:43;;;;;;;21.05;10.75;;;;;;;;;;6370486;22;20061;-62
2023/06/19 04:53:11;;;;;;;17.83;10.68;;;;;;;;;;6371491;22;20018;-62
2023/06/19 04:55:39;;;;;;;19.20;10.52;;;;;;;;;;6371937;22;20375;-62
2023/06/19 04:58:06;;;;;;;19.00;10.30;;;;;;;;;;6371385;22;20043;-63
2023/06/19 05:00:34;;;;;;;21.88;9.57;;;;;;;;;;6370910;22;20097;-62
2023/06/19 05:03:01;;;;;;;20.33;10.02;;;;;;;;;;6371254;22;20041;-62
2023/06/19 05:05:29;;;;;;;18.30;9.95;;;;;;;;;;6371480;22;20085;-62
2023/06/19 05:07:57;;;;;;;22.58;10.02;;;;;;;;;;6343620;22;20030;-62
2023/06/19 05:10:24;;;;;;;22.65;9.70;;;;;;;;;;6371118;22;20014;-62
2023/06/19 05:12:52;;;;;;;19.75;9.85;;;;;;;;;;6371279;22;20399;-62
2023/06/19 05:15:19;;;;;;;16.05;9.02;;;;;;;;;;6371108;22;20010;-62
2023/06/19 05:17:47;;;;;;;18.67;9.00;;;;;;;;;;6344294;22;20431;-62
2023/06/19 05:20:15;;;;;;;19.30;9.65;;;;;;;;;;6370741;22;20037;-62
2023/06/19 05:22:43;;;;;;;18.27;9.65;;;;;;;;;;6371176;22;20015;-62
2023/06/19 05:25:10;;;;;;;20.25;11.18;;;;;;;;;;6371101;22;20018;-62
2023/06/19 05:27:38;;;;;;;19.67;10.60;;;;;;;;;;6371084;22;20036;-62
2023/06/19 05:30:06;;;;;;;14.55;9.23;;;;;;;;;;6371101;22;20019;-62
2023/06/19 05:32:33;;;;;;;15.75;9.57;;;;;;;;;;6371623;22;20312;-62
2023/06/19 05:35:01;;;;;;;20.52;9.55;;;;;;;;;;6370769;22;20042;-62
2023/06/19 05:37:29;;;;;;;14.05;9.15;;;;;;;;;;6371302;22;20051;-61
2023/06/19 05:39:57;;;;;;;13.10;8.20;;;;;;;;;;6370821;22;20014;-62
2023/06/19 05:42:24;;;;;;;14.93;8.48;;;;;;;;;;6370199;22;20513;-62
2023/06/19 05:44:54;;;;;;;15.30;9.00;;;;;;;;;;6370451;22;20014;-62
2023/06/19 05:47:25;;;;;;;11.10;8.23;;;;;;;;;;6370472;22;20010;-62
2023/06/19 05:49:53;;;;;;;13.15;8.30;;;;;;;;;;6343158;22;20097;-62
2023/06/19 05:52:21;;;;;;;15.20;8.23;;;;;;;;;;6370957;22;20023;-62
2023/06/19 05:54:48;;;;;;;12.40;7.65;;;;;;;;;;6343451;22;20244;-62
2023/06/19 05:57:20;;;;;;;11.65;8.25;;;;;;;;;;6371066;22;20018;-62
2023/06/19 05:59:48;;;;;;;14.05;8.02;;;;;;;;;;6371263;22;20015;-62
2023/06/19 06:02:16;;;;;;;13.23;7.95;;;;;;;;;;6371279;22;20041;-62
2023/06/19 06:04:43;;;;;;;13.32;8.27;;;;;;;;;;6370739;22;20014;-62
2023/06/19 06:07:11;;;;;;;11.27;7.95;;;;;;;;;;6370965;22;20040;-62
2023/06/19 06:09:39;;;;;;;14.27;7.80;;;;;;;;;;6342946;22;20019;-62
2023/06/19 06:12:07;;;;;;;12.80;8.10;;;;;;;;;;6370876;22;20018;-62
2023/06/19 06:14:34;;;;;;;12.50;8.05;;;;;;;;;;6343314;22;20018;-62
2023/06/19 06:17:02;;;;;;;12.75;8.20;;;;;;;;;;6343514;22;20019;-62
2023/06/19 06:19:30;;;;;;;17.73;9.25;;;;;;;;;;6370559;22;20045;-63
2023/06/19 06:21:59;;;;;;;12.55;9.45;;;;;;;;;;6370335;22;20067;-63
2023/06/19 06:24:27;;;;;;;18.02;10.98;;;;;;;;;;6370598;22;20018;-63
2023/06/19 06:26:54;;;;;;;15.73;10.23;;;;;;;;;;6370255;22;20045;-63
2023/06/19 06:29:22;;;;;;;14.75;10.68;;;;;;;;;;6370267;22;20010;-63
2023/06/19 06:31:52;;;;;;;16.60;11.02;;;;;;;;;;6370561;22;20077;-63
2023/06/19 06:34:19;;;;;;;14.15;11.07;;;;;;;;;;6370490;22;20025;-63
2023/06/19 06:36:47;;;;;;;17.27;11.43;;;;;;;;;;6370429;22;20019;-63
2023/06/19 06:39:31;;;;;;;15.25;11.13;;;;;;;;;;6370484;22;20014;-62
2023/06/19 06:41:58;;;;;;;18.08;11.10;;;;;;;;;;6370359;22;20383;-62
2023/06/19 06:44:26;;;;;;;15.50;10.30;;;;;;;;;;6342240;22;20351;-62
2023/06/19 06:46:55;;;;;;;12.52;9.98;;;;;;;;;;6370333;22;20014;-64
2023/06/19 06:49:23;;;;;;;13.75;9.43;;;;;;;;;;6370488;22;20021;-62
2023/06/19 06:51:50;;;;;;;12.40;9.38;;;;;;;;;;6370121;22;20017;-63
2023/06/19 06:54:17;;;;;;;14.93;10.30;;;;;;;;;;6369792;22;20018;-62
2023/06/19 06:56:47;;;;;;;15.52;9.18;;;;;;;;;;6370321;22;20081;-63
2023/06/19 06:59:15;;;;;;;11.77;8.95;;;;;;;;;;6370070;22;20018;-63
2023/06/19 07:01:43;;;;;;;12.30;8.50;;;;;;;;;;6370448;22;20021;-63
2023/06/19 07:04:10;;;;;;;10.50;8.30;;;;;;;;;;6370224;22;20097;-63
2023/06/19 07:06:38;;;;;;;10.65;8.77;;;;;;;;;;6369647;22;20034;-63
2023/06/19 07:09:05;;;;;;;13.32;8.45;;;;;;;;;;6369682;22;20068;-63
2023/06/19 07:11:33;;;;;;;12.02;9.00;;;;;;;;;;6369355;22;20022;-63
2023/06/19 07:14:00;;;;;;;12.20;8.93;;;;;;;;;;6342244;22;20026;-63
2023/06/19 07:16:28;;;;;;;11.32;8.48;;;;;;;;;;6342195;22;20085;-62
2023/06/19 07:18:55;;;;;;;9.75;8.10;;;;;;;;;;6369375;22;20014;-62
2023/06/19 07:21:23;;;;;;;11.63;8.40;;;;;;;;;;6342087;22;20014;-62
2023/06/19 07:23:51;;;;;;;11.20;8.10;;;;;;;;;;6369493;22;20042;-62
2023/06/19 07:26:18;;;;;;;11.73;7.75;;;;;;;;;;6369656;22;20018;-62
2023/06/19 07:28:46;;;;;;;13.43;8.40;;;;;;;;;;6369997;22;20022;-62
2023/06/19 07:31:13;;;;;;;10.02;7.55;;;;;;;;;;6369258;22;20439;-63
2023/06/19 07:33:41;;;;;;;10.45;8.32;;;;;;;;;;6369499;22;20030;-62
2023/06/19 07:36:13;;;;;;;11.18;7.20;;;;;;;;;;6369435;22;20085;-62
2023/06/19 07:38:42;;;;;;;9.07;7.07;;;;;;;;;;6369936;22;20377;-63
2023/06/19 07:41:10;;;;;;;9.88;6.90;;;;;;;;;;6369537;22;20034;-63
2023/06/19 07:43:38;;;;;;;9.77;6.43;;;;;;;;;;6369138;22;20018;-63
2023/06/19 07:46:06;;;;;;;8.63;6.10;;;;;;;;;;6369564;22;20021;-63
2023/06/19 07:48:34;;;;;;;10.32;6.30;;;;;;;;;;6369323;22;20044;-63
2023/06/19 07:51:01;;;;;;;8.10;6.15;;;;;;;;;;6369345;22;20026;-62
2023/06/19 07:53:28;;;;;;;10.90;6.57;;;;;;;;;;6369235;22;20020;-63
2023/06/19 07:55:56;;;;;;;10.20;6.28;;;;;;;;;;6369507;22;20089;-63
2023/06/19 07:58:24;;;;;;;8.57;4.80;;;;;;;;;;6369342;22;20476;-62
2023/06/19 08:00:51;;;;;;;6.88;5.28;;;;;;;;;;6368101;22;20092;-62
2023/06/19 08:03:19;;;;;;;8.25;5.85;;;;;;;;;;6369527;22;20019;-63
2023/06/19 08:05:46;;;;;;;9.10;6.55;;;;;;;;;;6369947;22;20328;-62
2023/06/19 08:08:14;;;;;;;8.45;6.18;;;;;;;;;;6371332;22;20085;-63
2023/06/19 08:10:41;;;;;;;7.32;6.50;;;;;;;;;;6371422;22;20018;-62
2023/06/19 08:13:11;;;;;;;10.52;6.88;;;;;;;;;;6371345;22;20010;-63
2023/06/19 08:15:38;;;;;;;8.95;6.93;;;;;;;;;;6371244;22;20022;-63
2023/06/19 08:18:06;;;;;;;9.73;7.32;;;;;;;;;;6371261;22;20010;-63
2023/06/19 08:20:35;;;;;;;9.02;7.20;;;;;;;;;;6371132;22;20463;-63
2023/06/19 08:23:02;;;;;;;11.60;7.70;;;;;;;;;;6371637;22;20015;-63
2023/06/19 08:25:32;;;;;;;11.15;8.57;;;;;;;;;;6371516;22;20082;-63
2023/06/19 08:28:00;;;;;;;12.77;9.73;;;;;;;;;;6371240;22;20020;-63
2023/06/19 08:30:27;;;;;;;11.05;8.40;;;;;;;;;;6370858;22;20033;-63
2023/06/19 08:32:56;;;;;;;9.77;8.45;;;;;;;;;;6371617;22;20018;-63
2023/06/19 08:35:23;;;;;;;10.30;8.05;;;;;;;;;;6371686;22;20044;-63
2023/06/19 08:37:51;;;;;;;10.77;8.63;;;;;;;;;;6371407;22;20028;-63
2023/06/19 08:40:20;;;;;;;10.15;8.23;;;;;;;;;;6371167;22;20014;-63
2023/06/19 08:42:49;;;;;;;9.43;7.40;;;;;;;;;;6371242;22;20018;-63
2023/06/19 08:45:18;;;;;;;9.25;7.40;;;;;;;;;;6371077;22;20018;-64
2023/06/19 08:47:46;;;;;;;8.60;7.55;;;;;;;;;;6370970;22;20045;-63
2023/06/19 08:50:13;;;;;;;9.65;7.40;;;;;;;;;;6371121;22;20014;-64
2023/06/19 08:52:41;;;;;;;8.13;6.68;;;;;;;;;;6371171;22;20018;-64
2023/06/19 08:55:08;;;;;;;7.75;6.78;;;;;;;;;;6343169;22;20403;-63
2023/06/19 08:57:40;;;;;;;13.60;7.45;;;;;;;;;;6371282;22;20436;-63
2023/06/19 09:00:10;;;;;;;10.52;7.47;;;;;;;;;;6342832;22;20383;-63
2023/06/19 09:02:41;;;;;;;10.98;9.75;;;;;;;;;;6371207;22;20014;-63
2023/06/19 09:05:11;;;;;;;7.75;6.88;;;;;;;;;;6371087;22;20014;-62
2023/06/19 09:07:39;;;;;;;10.43;7.70;;;;;;;;;;6370730;22;20060;-62
2023/06/19 09:10:16;;;;;;;7.97;6.78;;;;;;;;;;6342671;22;20391;-62
2023/06/19 09:13:02;;;;;;;8.10;7.30;;;;;;;;;;6343742;22;20101;-62
2023/06/19 09:15:31;;;;;;;12.95;7.47;;;;;;;;;;6371020;22;20025;-62
2023/06/19 09:18:00;;;;;;;10.57;7.30;;;;;;;;;;6342824;22;20018;-61
2023/06/19 09:20:28;;;;;;;9.73;7.88;;;;;;;;;;6342882;22;20090;-63
2023/06/19 09:22:56;;;;;;;9.93;8.70;;;;;;;;;;6370952;22;20389;-61
2023/06/19 09:25:25;;;;;;;8.98;7.82;;;;;;;;;;6370772;22;20045;-61
2023/06/19 09:27:52;;;;;;;11.18;8.15;;;;;;;;;;6371274;22;20085;-62
2023/06/19 09:30:20;;;;;;;9.10;8.27;;;;;;;;;;6342890;22;20014;-62
2023/06/19 09:32:49;;;;;;;9.02;8.13;;;;;;;;;;6343371;22;20041;-62
2023/06/19 09:35:17;;;;;;;11.75;8.27;;;;;;;;;;6371143;22;20385;-62
2023/06/19 09:37:46;;;;;;;10.40;8.40;;;;;;;;;;6370764;22;20015;-61
2023/06/19 09:40:13;;;;;;;9.88;7.72;;;;;;;;;;6370799;22;20018;-62
2023/06/19 09:42:45;;;;;;;8.82;7.88;;;;;;;;;;6370610;22;20351;-62
2023/06/19 09:45:24;;;;;;;13.88;7.90;;;;;;;;;;6342677;22;20022;-62
2023/06/19 09:47:56;;;;;;;12.15;8.05;;;;;;;;;;6370604;22;20504;-62
2023/06/19 09:50:40;;;;;;;9.55;7.95;;;;;;;;;;6342706;22;20474;-62
2023/06/19 09:53:08;;;;;;;8.85;7.68;;;;;;;;;;6370533;22;20067;-62
2023/06/19 09:55:37;;;;;;;9.68;7.38;;;;;;;;;;6342847;22;20544;-61
2023/06/19 09:58:05;;;;;;;9.05;7.22;;;;;;;;;;6342864;22;20019;-61
2023/06/19 10:00:33;;;;;;;11.30;10.00;;;;;;;;;;6370164;22;20021;-62
2023/06/19 10:03:02;;;;;;;10.30;7.18;;;;;;;;;;6370438;22;20085;-62
2023/06/19 10:05:31;;;;;;;9.20;7.50;;;;;;;;;;6370542;22;20064;-62
2023/06/19 10:07:59;;;;;;;12.85;11.02;;;;;;;;;;6370665;22;20085;-62
2023/06/19 10:10:28;;;;;;;8.35;6.50;;;;;;;;;;6370049;22;20063;-62
2023/06/19 10:13:01;;;;;;;7.93;6.68;;;;;;;;;;6370452;22;20010;-62
2023/06/19 10:15:31;;;;;;;9.43;7.68;;;;;;;;;;6370246;22;20018;-62
2023/06/19 10:18:03;;;;;;;11.15;6.65;;;;;;;;;;6370169;22;20436;-62
2023/06/19 10:20:33;;;;;;;8.15;7.32;;;;;;;;;;6342736;22;20068;-62
2023/06/19 10:23:03;;;;;;;9.38;6.10;;;;;;;;;;6370195;22;20010;-62
2023/06/19 10:25:35;;;;;;;10.05;6.22;;;;;;;;;;6370605;22;20056;-62
2023/06/19 10:28:07;;;;;;;8.57;7.00;;;;;;;;;;6370618;22;20034;-62
2023/06/19 10:30:34;;;;;;;6.97;5.85;;;;;;;;;;6370441;22;20018;-62
2023/06/19 10:33:03;;;;;;;7.50;6.30;;;;;;;;;;6370553;22;20317;-62
2023/06/19 10:35:38;;;;;;;9.23;6.63;;;;;;;;;;6370235;22;20063;-62
2023/06/19 10:38:06;;;;;;;7.45;6.00;;;;;;;;;;6370241;22;20011;-62
2023/06/19 10:40:33;;;;;;;7.05;5.60;;;;;;;;;;6370228;22;20022;-62
2023/06/19 10:43:01;;;;;;;8.50;6.03;;;;;;;;;;6370116;22;20010;-62
2023/06/19 10:45:28;;;;;;;6.35;5.60;;;;;;;;;;6370453;22;20023;-62
2023/06/19 10:47:56;;;;;;;8.10;5.50;;;;;;;;;;6343031;22;20037;-62
2023/06/19 10:50:24;;;;;;;9.27;5.70;;;;;;;;;;6370277;22;20014;-62
2023/06/19 10:52:54;;;;;;;7.28;5.05;;;;;;;;;;6370317;22;20071;-63
2023/06/19 10:55:23;;;;;;;6.75;5.18;;;;;;;;;;6370338;22;20045;-62
2023/06/19 10:57:51;;;;;;;7.28;5.43;;;;;;;;;;6370392;22;20070;-63
2023/06/19 11:00:29;;;;;;;10.75;4.90;;;;;;;;;;6370125;22;20022;-62
2023/06/19 11:02:58;;;;;;;7.57;5.45;;;;;;;;;;6370425;22;20014;-63
2023/06/19 11:05:27;;;;;;;8.15;5.00;;;;;;;;;;6370320;22;20044;-63
2023/06/19 11:07:58;;;;;;;8.25;4.95;;;;;;;;;;6369901;22;20018;-64
2023/06/19 11:10:27;;;;;;;8.45;4.70;;;;;;;;;;6369880;22;20014;-63
2023/06/19 11:12:56;;;;;;;6.95;5.30;;;;;;;;;;6370257;22;20015;-63
2023/06/19 11:15:32;;;;;;;6.28;4.80;;;;;;;;;;6370204;22;20010;-62
2023/06/19 11:18:01;;;;;;;6.72;4.88;;;;;;;;;;6370183;22;20496;-62
2023/06/19 11:20:30;;;;;;;6.07;5.07;;;;;;;;;;6342385;22;20023;-62
2023/06/19 11:22:58;;;;;;;7.07;5.00;;;;;;;;;;6370128;22;20063;-62
2023/06/19 11:25:38;;;;;;;6.70;5.05;;;;;;;;;;6341808;22;20023;-62
2023/06/19 11:28:17;;;;;;;6.90;5.03;;;;;;;;;;6369926;22;20121;-62
2023/06/19 11:30:47;;;;;;;6.93;4.78;;;;;;;;;;6370236;22;20018;-63
2023/06/19 11:33:22;;;;;;;6.60;4.90;;;;;;;;;;6342207;22;20093;-62
2023/06/19 11:35:50;;;;;;;7.95;5.45;;;;;;;;;;6370183;22;20238;-63
2023/06/19 11:38:21;;;;;;;8.63;6.45;;;;;;;;;;6341977;22;20017;-63
2023/06/19 11:40:50;;;;;;;8.40;6.40;;;;;;;;;;6343536;22;20018;-63
2023/06/19 11:43:26;;;;;;;8.60;6.22;;;;;;;;;;6371909;22;20017;-63
2023/06/19 11:45:54;;;;;;;6.47;4.90;;;;;;;;;;6343942;22;20029;-62
2023/06/19 11:48:23;;;;;;;5.85;4.85;;;;;;;;;;6371829;22;20017;-62
2023/06/19 11:50:51;;;;;;;8.63;5.63;;;;;;;;;;6371962;22;20444;-62
2023/06/19 11:53:18;;;;;;;7.07;5.53;;;;;;;;;;6371600;22;20025;-62
2023/06/19 11:55:46;;;;;;;9.05;6.63;;;;;;;;;;6343783;22;20018;-62
2023/06/19 11:58:15;;;;;;;7.88;5.15;;;;;;;;;;6318001;22;20029;-62
2023/06/19 12:00:43;;;;;;;10.05;8.82;;;;;;;;;;6371601;22;20447;-62
2023/06/19 12:03:13;;;;;;;5.65;5.07;;;;;;;;;;6371913;22;20506;-62
2023/06/19 12:05:40;;;;;;;6.53;5.15;;;;;;;;;;6371041;22;20022;-61
2023/06/19 12:08:08;;;;;;;7.97;5.03;;;;;;;;;;6371754;22;20006;-62
2023/06/19 12:10:36;;;;;;;8.00;5.00;;;;;;;;;;6343692;22;20101;-62
2023/06/19 12:13:03;;;;;;;7.22;5.07;;;;;;;;;;6371568;22;20018;-63
2023/06/19 12:15:31;;;;;;;5.35;4.82;;;;;;;;;;6371655;22;20085;-62
2023/06/19 12:18:01;;;;;;;6.55;5.00;;;;;;;;;;6371810;22;20021;-62
2023/06/19 12:20:28;;;;;;;5.85;5.07;;;;;;;;;;6371381;22;20014;-63
2023/06/19 12:22:56;;;;;;;6.68;4.72;;;;;;;;;;6371721;22;20015;-62
2023/06/19 12:25:23;;;;;;;6.65;5.13;;;;;;;;;;6371452;22;20072;-63
2023/06/19 12:27:51;;;;;;;6.63;5.05;;;;;;;;;;6371501;22;20073;-64
2023/06/19 12:30:22;;;;;;;6.03;4.68;;;;;;;;;;6371463;22;20045;-61
2023/06/19 12:32:50;;;;;;;6.75;4.95;;;;;;;;;;6371725;22;20019;-64
2023/06/19 12:35:18;;;;;;;5.63;4.97;;;;;;;;;;6371602;22;20017;-61
2023/06/19 12:37:45;;;;;;;5.25;4.75;;;;;;;;;;6371602;22;20025;-63
2023/06/19 12:40:20;;;;;;;4.82;4.22;;;;;;;;;;6371234;22;20428;-62
2023/06/19 12:42:50;;;;;;;6.63;4.75;;;;;;;;;;6343435;22;20040;-63
2023/06/19 12:45:17;;;;;;;8.63;4.85;;;;;;;;;;6371443;22;20042;-62
2023/06/19 12:47:45;;;;;;;5.78;4.57;;;;;;;;;;6371495;22;20015;-62
2023/06/19 12:50:12;;;;;;;5.75;4.68;;;;;;;;;;6371394;22;20018;-63
2023/06/19 12:52:40;;;;;;;9.15;5.18;;;;;;;;;;6370661;22;20014;-62
2023/06/19 12:55:07;;;;;;;9.18;4.55;;;;;;;;;;6371368;22;20098;-63
2023/06/19 12:57:35;;;;;;;9.50;4.95;;;;;;;;;;6371001;22;20010;-62
2023/06/19 13:00:08;;;;;;;7.65;4.70;;;;;;;;;;6371017;22;20022;-62
2023/06/19 13:02:35;;;;;;;6.50;4.60;;;;;;;;;;6371208;22;20015;-63
2023/06/19 13:05:03;;;;;;;4.95;4.45;;;;;;;;;;6371444;22;20021;-62
2023/06/19 13:07:30;;;;;;;6.22;4.32;;;;;;;;;;6371021;22;20040;-63
2023/06/19 13:09:58;;;;;;;5.53;4.93;;;;;;;;;;6371583;22;20390;-63
2023/06/19 13:12:26;;;;;;;6.90;5.20;;;;;;;;;;6343091;22;20020;-63
2023/06/19 13:14:54;;;;;;;5.25;4.70;;;;;;;;;;6371102;22;20026;-63
2023/06/19 13:17:21;;;;;;;5.90;4.43;;;;;;;;;;6371139;22;20014;-63
2023/06/19 13:19:49;;;;;;;5.28;4.50;;;;;;;;;;6370819;22;20018;-62
2023/06/19 13:22:21;;;;;;;8.10;5.30;;;;;;;;;;6370838;22;20384;-63
2023/06/19 13:24:51;;;;;;;8.70;5.30;;;;;;;;;;6371149;22;20022;-62
2023/06/19 13:27:19;;;;;;;8.10;5.57;;;;;;;;;;6370934;22;20014;-62
2023/06/19 13:29:46;;;;;;;7.45;5.82;;;;;;;;;;6370852;22;20018;-62
2023/06/19 13:32:14;;;;;;;8.18;6.10;;;;;;;;;;6370748;22;20028;-62
2023/06/19 13:34:41;;;;;;;7.68;4.97;;;;;;;;;;6370723;22;20041;-62
2023/06/19 13:37:09;;;;;;;7.22;4.75;;;;;;;;;;6370415;22;20360;-62
2023/06/19 13:39:37;;;;;;;10.55;5.22;;;;;;;;;;6370887;22;20063;-63
2023/06/19 13:42:05;;;;;;;8.05;4.57;;;;;;;;;;6370508;22;20018;-63
2023/06/19 13:44:33;;;;;;;6.50;4.80;;;;;;;;;;6369473;22;20018;-62
2023/06/19 13:47:00;;;;;;;6.25;4.93;;;;;;;;;;6370069;22;20440;-62
2023/06/19 13:49:28;;;;;;;6.15;4.57;;;;;;;;;;6342852;22;20011;-61
2023/06/19 13:51:55;;;;;;;6.53;4.80;;;;;;;;;;6371209;22;20018;-61
2023/06/19 13:54:23;;;;;;;6.00;4.47;;;;;;;;;;6371863;22;20015;-61
2023/06/19 13:56:51;;;;;;;7.45;5.22;;;;;;;;;;6372308;22;20021;-61
2023/06/19 13:59:18;;;;;;;6.50;4.70;;;;;;;;;;6370980;22;20091;-61
2023/06/19 14:01:46;;;;;;;5.95;5.10;;;;;;;;;;6370270;22;20015;-61
2023/06/19 14:04:13;;;;;;;8.55;4.40;;;;;;;;;;6370860;22;20089;-62
2023/06/19 14:06:42;;;;;;;6.43;4.93;;;;;;;;;;6370685;22;20018;-62
2023/06/19 14:09:10;;;;;;;6.43;4.25;;;;;;;;;;6371354;22;20014;-61
2023/06/19 14:11:37;;;;;;;6.45;4.70;;;;;;;;;;6371721;22;20015;-63
2023/06/19 14:14:05;;;;;;;6.70;4.90;;;;;;;;;;6371626;22;20019;-62
2023/06/19 14:16:33;;;;;;;10.07;5.10;;;;;;;;;;6371378;22;20018;-61
2023/06/19 14:19:00;;;;;;;6.03;4.65;;;;;;;;;;6371341;22;20347;-62
2023/06/19 14:21:28;;;;;;;5.28;4.78;;;;;;;;;;6370710;22;20014;-62
2023/06/19 14:23:56;;;;;;;6.75;4.78;;;;;;;;;;6371053;22;20285;-62
2023/06/19 14:26:23;;;;;;;7.22;4.43;;;;;;;;;;6370687;22;20093;-63
2023/06/19 14:28:55;;;;;;;6.15;4.65;;;;;;;;;;6344310;22;20015;-63
2023/06/19 14:31:22;;;;;;;7.07;4.20;;;;;;;;;;6344547;22;20018;-61
2023/06/19 14:33:51;;;;;;;5.22;4.32;;;;;;;;;;6369044;22;20025;-63
2023/06/19 14:36:18;;;;;;;5.97;4.15;;;;;;;;;;6370907;22;20018;-63
2023/06/19 14:38:46;;;;;;;5.30;4.47;;;;;;;;;;6371130;22;20330;-63
2023/06/19 14:41:13;;;;;;;7.07;4.63;;;;;;;;;;6370907;22;20549;-63
2023/06/19 14:43:40;;;;;;;7.88;5.20;;;;;;;;;;6370586;22;20025;-63